createdAt,value
2019-02-09T00:04:23.370Z,77.60
2019-02-09T00:09:23.086Z,77.30
2019-02-09T00:14:22.736Z,77.20
2019-02-09T00:19:22.462Z,77.20
2019-02-09T00:24:22.126Z,77.30
2019-02-09T00:29:21.751Z,77.50
2019-02-09T00:34:21.391Z,77.00
2019-02-09T00:39:21.023Z,77.60
2019-02-09T00:44:20.719Z,77.80
2019-02-09T00:49:20.371Z,78.00
2019-02-09T00:54:20.012Z,77.70
2019-02-09T00:59:19.663Z,77.50
2019-02-09T01:04:19.327Z,77.60
2019-02-09T01:09:19.031Z,77.80
2019-02-09T01:14:18.655Z,78.00
2019-02-09T01:19:18.364Z,78.20
2019-02-09T01:24:18.233Z,78.90
2019-02-09T01:29:18.116Z,78.00
2019-02-09T01:34:17.747Z,78.60
2019-02-09T01:39:17.455Z,79.00
2019-02-09T01:44:17.110Z,79.00
2019-02-09T01:49:16.823Z,79.10
2019-02-09T01:54:16.726Z,79.40
2019-02-09T01:59:16.447Z,79.70
2019-02-09T02:04:16.082Z,79.60
2019-02-09T02:09:15.879Z,79.70
2019-02-09T02:14:15.595Z,80.00
2019-02-09T02:19:15.231Z,80.10
2019-02-09T02:24:14.882Z,79.90
2019-02-09T02:29:14.515Z,80.10
2019-02-09T02:34:14.234Z,80.00
2019-02-09T02:39:14.119Z,80.00
2019-02-09T02:44:13.750Z,80.10
2019-02-09T02:49:13.470Z,80.00
2019-02-09T02:54:13.107Z,80.40
2019-02-09T02:59:12.761Z,80.50
2019-02-09T03:04:12.378Z,80.70
2019-02-09T03:09:12.011Z,80.50
2019-02-09T03:14:11.659Z,80.80
2019-02-09T03:19:11.288Z,80.90
2019-02-09T03:24:10.927Z,80.60
2019-02-09T03:29:10.554Z,80.80
2019-02-09T03:34:10.166Z,80.80
2019-02-09T03:39:09.778Z,81.00
2019-02-09T03:44:09.698Z,80.70
2019-02-09T03:49:09.660Z,80.80
2019-02-09T03:54:09.582Z,81.20
2019-02-09T03:59:09.262Z,81.60
2019-02-09T04:04:09.041Z,82.00
2019-02-09T04:09:08.975Z,81.90
2019-02-09T04:14:08.903Z,82.00
2019-02-09T04:19:08.546Z,82.00
2019-02-09T04:24:08.158Z,81.70
2019-02-09T04:29:07.806Z,81.90
2019-02-09T04:34:07.674Z,82.00
2019-02-09T04:39:07.545Z,81.80
2019-02-09T04:44:07.446Z,81.90
2019-02-09T04:49:07.614Z,81.60
2019-02-09T04:54:07.791Z,81.90
2019-02-09T04:59:08.378Z,81.70
2019-02-09T05:04:08.009Z,81.70
2019-02-09T05:09:07.976Z,82.00
2019-02-09T05:14:07.622Z,81.80
2019-02-09T05:19:07.234Z,82.10
2019-02-09T05:24:06.931Z,82.10
2019-02-09T05:29:06.612Z,82.50
2019-02-09T05:34:06.261Z,82.50
2019-02-09T05:39:08.078Z,82.50
2019-02-09T05:44:07.790Z,82.40
2019-02-09T05:49:07.426Z,82.50
2019-02-09T05:54:07.062Z,82.30
2019-02-09T05:59:07.503Z,82.70
2019-02-09T06:04:07.170Z,82.50
2019-02-09T06:09:08.202Z,82.30
2019-02-09T06:14:07.988Z,82.80
2019-02-09T06:19:07.617Z,82.60
2019-02-09T06:24:07.369Z,82.70
2019-02-09T06:29:07.222Z,82.90
2019-02-09T06:34:06.918Z,82.90
2019-02-09T06:39:08.298Z,82.70
2019-02-09T06:44:07.917Z,82.60
2019-02-09T06:49:07.567Z,82.70
2019-02-09T06:54:07.189Z,82.70
2019-02-09T06:59:06.890Z,82.30
2019-02-09T07:04:07.470Z,82.20
2019-02-09T07:09:09.181Z,82.30
2019-02-09T07:14:08.891Z,82.30
2019-02-09T07:19:08.518Z,82.60
2019-02-09T07:24:08.158Z,82.80
2019-02-09T07:29:07.794Z,83.00
2019-02-09T07:34:07.457Z,83.30
2019-02-09T07:39:09.609Z,83.50
2019-02-09T07:44:09.254Z,83.60
2019-02-09T07:49:08.874Z,83.30
2019-02-09T07:54:08.502Z,83.50
2019-02-09T07:59:08.113Z,83.30
2019-02-09T08:04:07.722Z,83.60
2019-02-09T08:09:12.077Z,83.80
2019-02-09T08:14:11.790Z,84.00
2019-02-09T08:19:11.567Z,84.00
2019-02-09T08:24:11.188Z,84.00
2019-02-09T08:29:10.895Z,84.00
2019-02-09T08:34:10.774Z,83.90
2019-02-09T08:39:10.564Z,83.90
2019-02-09T08:44:10.174Z,84.10
2019-02-09T08:49:09.958Z,84.30
2019-02-09T08:54:09.705Z,84.10
2019-02-09T08:59:09.375Z,83.90
2019-02-09T09:04:09.130Z,83.80
2019-02-09T09:09:10.777Z,83.80
2019-02-09T09:14:10.531Z,83.60
2019-02-09T09:19:10.237Z,83.70
2019-02-09T09:24:09.962Z,83.20
2019-02-09T09:29:09.582Z,83.30
2019-02-09T09:34:09.365Z,82.90
2019-02-09T09:39:09.714Z,82.20
2019-02-09T09:44:09.403Z,81.80
2019-02-09T09:49:09.042Z,81.30
2019-02-09T09:54:08.825Z,80.90
2019-02-09T09:59:08.681Z,80.80
2019-02-09T10:04:08.302Z,78.70
2019-02-09T10:09:08.706Z,78.30
2019-02-09T10:14:09.125Z,78.40
2019-02-09T10:19:08.870Z,77.50
2019-02-09T10:24:08.485Z,76.90
2019-02-09T10:29:08.114Z,75.40
2019-02-09T10:34:07.738Z,76.20
2019-02-09T10:39:09.140Z,76.00
2019-02-09T10:44:09.102Z,75.20
2019-02-09T10:49:08.986Z,74.40
2019-02-09T10:54:08.618Z,73.60
2019-02-09T10:59:08.246Z,72.00
2019-02-09T11:04:08.347Z,71.60
2019-02-09T11:09:14.922Z,71.10
2019-02-09T11:14:14.557Z,70.50
2019-02-09T11:19:14.229Z,69.90
2019-02-09T11:24:14.153Z,69.60
2019-02-09T11:29:13.790Z,69.00
2019-02-09T11:34:13.498Z,69.70
2019-02-09T11:39:13.389Z,69.50
2019-02-09T11:44:13.022Z,69.00
2019-02-09T11:49:12.670Z,68.70
2019-02-09T11:54:13.061Z,68.00
2019-02-09T11:59:12.810Z,68.30
2019-02-09T12:04:12.461Z,67.90
2019-02-09T12:09:12.147Z,66.70
2019-02-09T12:14:12.270Z,66.90
2019-02-09T12:19:11.981Z,69.20
2019-02-09T12:24:12.108Z,70.10
2019-02-09T12:29:11.730Z,69.40
2019-02-09T12:34:11.569Z,68.90
2019-02-09T12:39:11.330Z,68.10
2019-02-09T12:44:10.956Z,66.90
2019-02-09T12:49:10.827Z,66.30
2019-02-09T12:54:10.478Z,66.90
2019-02-09T12:59:14.809Z,65.80
2019-02-09T13:04:11.548Z,66.10
2019-02-09T13:09:11.242Z,65.60
2019-02-09T13:14:10.873Z,65.80
2019-02-09T13:19:10.570Z,65.90
2019-02-09T13:24:10.278Z,65.10
2019-02-09T13:29:09.922Z,65.60
2019-02-09T13:34:10.582Z,65.90
2019-02-09T13:39:10.458Z,65.40
2019-02-09T13:44:10.094Z,65.30
2019-02-09T13:49:09.718Z,64.80
2019-02-09T13:54:09.345Z,65.50
2019-02-09T13:59:08.946Z,65.70
2019-02-09T14:04:08.574Z,66.40
2019-02-09T14:09:08.563Z,66.90
2019-02-09T14:14:09.657Z,67.40
2019-02-09T14:19:10.246Z,67.30
2019-02-09T14:24:10.820Z,69.20
2019-02-09T14:29:10.426Z,71.00
2019-02-09T14:34:10.362Z,72.90
2019-02-09T14:39:12.803Z,73.60
2019-02-09T14:44:12.429Z,73.80
2019-02-09T14:49:12.050Z,73.90
2019-02-09T14:54:11.695Z,75.00
2019-02-09T14:59:11.342Z,76.20
2019-02-09T15:04:11.229Z,77.00
2019-02-09T15:09:11.181Z,76.60
2019-02-09T15:14:10.894Z,76.70
2019-02-09T15:19:10.522Z,76.10
2019-02-09T15:24:10.454Z,75.70
2019-02-09T15:29:10.058Z,75.20
2019-02-09T15:34:10.498Z,74.20
2019-02-09T15:39:10.407Z,73.80
2019-02-09T15:44:10.178Z,73.50
2019-02-09T15:49:09.875Z,73.50
2019-02-09T15:54:09.495Z,72.00
2019-02-09T15:59:09.126Z,72.30
2019-02-09T16:04:08.742Z,72.30
2019-02-09T16:09:09.162Z,71.30
2019-02-09T16:14:08.786Z,70.60
2019-02-09T16:19:08.414Z,70.70
2019-02-09T16:24:08.121Z,72.30
2019-02-09T16:29:07.818Z,72.30
2019-02-09T16:34:07.430Z,74.60
2019-02-09T16:39:08.842Z,76.00
2019-02-09T16:44:10.229Z,76.90
2019-02-09T16:49:09.882Z,78.10
2019-02-09T16:54:09.604Z,77.80
2019-02-09T16:59:09.237Z,78.20
2019-02-09T17:04:09.121Z,77.90
2019-02-09T17:09:09.899Z,77.90
2019-02-09T17:14:09.618Z,77.50
2019-02-09T17:19:09.231Z,77.90
2019-02-09T17:24:08.962Z,77.90
2019-02-09T17:29:08.638Z,78.60
2019-02-09T17:34:08.234Z,78.50
2019-02-09T17:39:09.003Z,79.00
2019-02-09T17:44:09.419Z,79.10
2019-02-09T17:49:09.128Z,79.30
2019-02-09T17:54:08.837Z,79.50
2019-02-09T17:59:08.602Z,80.10
2019-02-09T18:04:08.339Z,80.60
2019-02-09T18:09:08.327Z,80.80
2019-02-09T18:14:08.168Z,81.50
2019-02-09T18:19:07.933Z,81.60
2019-02-09T18:24:07.669Z,81.90
2019-02-09T18:29:07.410Z,81.90
2019-02-09T18:34:07.150Z,82.20
2019-02-09T18:39:11.142Z,82.30
2019-02-09T18:44:10.809Z,82.90
2019-02-09T18:49:10.493Z,82.60
2019-02-09T18:54:10.155Z,82.60
2019-02-09T18:59:09.777Z,82.70
2019-02-09T19:04:09.583Z,82.50
2019-02-09T19:09:09.994Z,81.90
2019-02-09T19:14:09.770Z,82.90
2019-02-09T19:19:09.561Z,82.90
2019-02-09T19:24:09.511Z,83.00
2019-02-09T19:29:09.142Z,83.10
2019-02-09T19:34:08.868Z,83.30
2019-02-09T19:39:09.908Z,82.90
2019-02-09T19:44:09.788Z,83.10
2019-02-09T19:49:09.675Z,82.50
2019-02-09T19:54:09.305Z,82.40
2019-02-09T19:59:09.367Z,82.80
2019-02-09T20:04:09.113Z,82.70
2019-02-09T20:09:09.585Z,82.90
2019-02-09T20:14:09.274Z,82.40
2019-02-09T20:19:08.918Z,82.50
2019-02-09T20:24:08.594Z,83.10
2019-02-09T20:29:08.617Z,82.90
2019-02-09T20:34:08.249Z,83.30
2019-02-09T20:39:09.114Z,83.00
2019-02-09T20:44:08.882Z,82.60
2019-02-09T20:49:08.523Z,83.30
2019-02-09T20:54:08.218Z,82.90
2019-02-09T20:59:07.854Z,82.80
2019-02-09T21:04:07.846Z,82.70
2019-02-09T21:09:08.414Z,82.90
2019-02-09T21:14:08.181Z,82.70
2019-02-09T21:19:08.134Z,83.10
2019-02-09T21:24:07.771Z,83.00
2019-02-09T21:29:07.473Z,82.60
2019-02-09T21:34:07.192Z,82.80
2019-02-09T21:39:09.376Z,82.80
2019-02-09T21:44:09.286Z,82.60
2019-02-09T21:49:08.902Z,82.40
2019-02-09T21:54:09.578Z,82.20
2019-02-09T21:59:09.350Z,82.00
2019-02-09T22:04:08.986Z,82.00
2019-02-09T22:09:09.279Z,81.90
2019-02-09T22:14:09.728Z,82.20
2019-02-09T22:19:10.438Z,81.90
2019-02-09T22:24:10.308Z,82.00
2019-02-09T22:29:10.283Z,82.30
2019-02-09T22:34:10.042Z,82.30
2019-02-09T22:39:09.895Z,82.00
2019-02-09T22:44:11.414Z,82.10
2019-02-09T22:49:11.292Z,81.60
2019-02-09T22:54:11.100Z,81.90
2019-02-09T22:59:10.714Z,81.70
2019-02-09T23:04:32.313Z,81.70
2019-02-09T23:09:33.006Z,81.80
2019-02-09T23:14:32.693Z,81.70
2019-02-09T23:19:32.314Z,82.00
2019-02-09T23:24:33.150Z,81.90
2019-02-09T23:29:33.026Z,82.00
2019-02-09T23:34:33.454Z,82.00
2019-02-09T23:39:33.330Z,82.00
2019-02-09T23:44:33.185Z,82.20
2019-02-09T23:49:32.831Z,81.90
2019-02-09T23:54:32.535Z,82.00
2019-02-09T23:59:32.165Z,82.00
